Tribune, Kentucky
Current Conditions -  °F | °C
As of 4:15 PM on Monday 20 Oct 2014 (Local Time) from K5M9 Reporting Station
Clear Clear  
Wind Chill: 70°   Ceiling: Unl
Heat Index: 70°   Visibility: 10mi
Dew Point: 54°   Wind: 14mph
Humidity: 56%   Direction: 240°WSW
Pressure: 29.92"   Gusts: 17mph
Location:  37.3359°N, 88.1049°W
Report Text: K5M9 202115Z AUTO 24012G15KT 10SM CLR 21/12 A2992 RMK AO2 T02110120
Loading
Personal Weather Stations






























Interactive Weather Map
Tropical Storm Tracking
New forecast layout! Learn more

10-Day Weather Forecast

Advertisements
Track Severe Weather on mobile